createdAt,value
2022-10-07T00:01:00.298Z,10.05
2022-10-07T00:03:28.873Z,10.37
2022-10-07T00:06:22.832Z,10.37
2022-10-07T00:08:52.875Z,10.32
2022-10-07T00:11:23.207Z,10.24
2022-10-07T00:13:53.034Z,10.23
2022-10-07T00:16:25.913Z,9.99
2022-10-07T00:18:56.959Z,10.19
2022-10-07T00:21:26.444Z,10.24
2022-10-07T00:23:53.582Z,10.20
2022-10-07T00:26:23.731Z,10.17
2022-10-07T00:28:51.583Z,10.18
2022-10-07T00:31:24.526Z,10.20
2022-10-07T00:33:52.449Z,10.17
2022-10-07T00:36:25.093Z,10.19
2022-10-07T00:38:53.987Z,10.14
2022-10-07T00:41:25.039Z,10.18
2022-10-07T00:43:52.129Z,10.17
2022-10-07T00:46:25.055Z,10.15
2022-10-07T00:48:53.035Z,10.11
2022-10-07T00:51:20.136Z,10.15
2022-10-07T00:53:51.464Z,10.11
2022-10-07T00:56:19.316Z,10.02
2022-10-07T00:58:49.507Z,9.88
2022-10-07T01:01:18.590Z,9.98
2022-10-07T01:03:48.156Z,9.95
2022-10-07T01:06:16.114Z,9.91
2022-10-07T01:08:45.301Z,9.74
2022-10-07T01:11:24.076Z,9.90
2022-10-07T01:13:57.228Z,9.87
2022-10-07T01:16:57.313Z,9.81
2022-10-07T01:19:45.520Z,9.73
2022-10-07T01:22:39.196Z,9.59
2022-10-07T01:25:09.821Z,9.71
2022-10-07T01:27:38.570Z,9.67
2022-10-07T01:30:08.532Z,9.60
2022-10-07T01:32:40.555Z,9.58
2022-10-07T01:35:14.119Z,9.51
2022-10-07T01:37:47.208Z,9.24
2022-10-07T01:40:21.012Z,9.47
2022-10-07T01:42:49.506Z,9.45
2022-10-07T01:45:21.642Z,9.39
2022-10-07T01:47:49.331Z,9.36
2022-10-07T01:50:18.957Z,9.50
2022-10-07T01:53:03.861Z,9.42
2022-10-07T01:55:52.581Z,9.39
2022-10-07T01:58:41.479Z,9.40
2022-10-07T02:01:19.303Z,9.43
2022-10-07T02:04:05.044Z,9.42
2022-10-07T02:06:42.830Z,9.18
2022-10-07T02:09:30.877Z,9.43
2022-10-07T02:12:32.959Z,9.43
2022-10-07T02:15:05.869Z,9.42
2022-10-07T02:17:38.786Z,9.42
2022-10-07T02:20:10.800Z,9.45
2022-10-07T02:22:41.380Z,8.92
2022-10-07T02:25:10.650Z,9.43
2022-10-07T02:27:39.797Z,9.39
2022-10-07T02:30:11.946Z,9.42
2022-10-07T02:32:48.053Z,9.39
2022-10-07T02:35:37.104Z,9.38
2022-10-07T02:38:07.763Z,9.32
2022-10-07T02:40:40.438Z,9.31
2022-10-07T02:43:21.736Z,9.32
2022-10-07T02:45:55.047Z,9.31
2022-10-07T02:48:30.029Z,9.28
2022-10-07T02:51:01.477Z,9.26
2022-10-07T02:53:32.490Z,9.25
2022-10-07T02:56:02.910Z,9.20
2022-10-07T02:58:30.523Z,9.21
2022-10-07T03:01:02.672Z,9.20
2022-10-07T03:03:30.746Z,9.19
2022-10-07T03:06:01.983Z,8.77
2022-10-07T03:08:30.772Z,9.16
2022-10-07T03:10:58.504Z,9.08
2022-10-07T03:13:26.275Z,9.16
2022-10-07T03:15:58.318Z,8.89
2022-10-07T03:18:27.747Z,8.41
2022-10-07T03:21:04.050Z,9.13
2022-10-07T03:23:31.099Z,8.99
2022-10-07T03:25:59.718Z,8.98
2022-10-07T03:28:29.505Z,9.03
2022-10-07T03:31:08.370Z,8.98
2022-10-07T03:33:37.912Z,8.95
2022-10-07T03:36:08.611Z,8.91
2022-10-07T03:38:37.160Z,8.90
2022-10-07T03:41:05.027Z,8.75
2022-10-07T03:43:33.849Z,8.92
2022-10-07T03:46:04.113Z,8.96
2022-10-07T03:48:33.692Z,9.02
2022-10-07T03:51:02.216Z,8.99
2022-10-07T03:53:31.922Z,8.99
2022-10-07T03:56:01.192Z,8.87
2022-10-07T03:58:30.102Z,8.89
2022-10-07T04:01:12.257Z,8.80
2022-10-07T04:03:45.163Z,8.83
2022-10-07T04:06:12.450Z,8.21
2022-10-07T04:08:41.220Z,8.51
2022-10-07T04:11:09.270Z,8.76
2022-10-07T04:13:40.310Z,8.77
2022-10-07T04:16:09.949Z,8.69
2022-10-07T04:18:37.940Z,8.71
2022-10-07T04:21:05.654Z,8.71
2022-10-07T04:23:36.159Z,8.69
2022-10-07T04:26:10.063Z,8.48
2022-10-07T04:28:40.009Z,8.68
2022-10-07T04:31:11.803Z,8.68
2022-10-07T04:33:46.544Z,8.67
2022-10-07T04:36:19.500Z,8.40
2022-10-07T04:38:55.788Z,8.66
2022-10-07T04:41:26.919Z,8.65
2022-10-07T04:43:57.612Z,8.59
2022-10-07T04:46:29.080Z,8.58
2022-10-07T04:49:10.903Z,8.52
2022-10-07T04:51:38.214Z,8.52
2022-10-07T04:54:05.925Z,7.81
2022-10-07T04:56:39.630Z,8.39
2022-10-07T04:59:09.492Z,8.51
2022-10-07T05:01:38.700Z,8.46
2022-10-07T05:04:05.927Z,8.20
2022-10-07T05:06:34.383Z,8.41
2022-10-07T05:09:01.822Z,8.49
2022-10-07T05:11:31.739Z,8.47
2022-10-07T05:14:06.362Z,8.45
2022-10-07T05:16:33.715Z,8.23
2022-10-07T05:19:00.980Z,8.46
2022-10-07T05:21:28.129Z,8.46
2022-10-07T05:23:55.359Z,8.37
2022-10-07T05:26:29.329Z,8.36
2022-10-07T05:28:59.258Z,8.29
2022-10-07T05:31:32.704Z,8.30
2022-10-07T05:34:03.095Z,8.40
2022-10-07T05:36:30.799Z,8.27
2022-10-07T05:38:59.867Z,8.33
2022-10-07T05:41:59.525Z,8.17
2022-10-07T05:44:33.398Z,8.24
2022-10-07T05:47:02.598Z,8.31
2022-10-07T05:49:30.864Z,8.28
2022-10-07T05:51:58.807Z,8.26
2022-10-07T05:54:25.971Z,8.03
2022-10-07T05:56:54.899Z,8.10
2022-10-07T05:59:23.128Z,8.35
2022-10-07T06:01:50.833Z,8.47
2022-10-07T06:04:21.437Z,8.50
2022-10-07T06:06:51.108Z,8.48
2022-10-07T06:09:36.789Z,8.56
2022-10-07T06:12:29.280Z,8.59
2022-10-07T06:14:58.317Z,8.37
2022-10-07T06:17:25.948Z,8.61
2022-10-07T06:19:56.649Z,8.76
2022-10-07T06:22:23.998Z,8.88
2022-10-07T06:24:52.452Z,8.91
2022-10-07T06:27:20.084Z,8.99
2022-10-07T06:29:47.112Z,9.01
2022-10-07T06:32:14.535Z,8.39
2022-10-07T06:34:42.177Z,9.11
2022-10-07T06:37:09.630Z,9.22
2022-10-07T06:39:37.175Z,9.26
2022-10-07T06:42:04.337Z,9.28
2022-10-07T06:44:54.335Z,9.44
2022-10-07T06:47:23.921Z,9.16
2022-10-07T06:49:52.207Z,9.51
2022-10-07T06:52:19.508Z,9.50
2022-10-07T06:54:47.639Z,9.69
2022-10-07T06:57:40.534Z,9.45
2022-10-07T07:00:01.918Z,9.51
2022-10-07T07:02:33.551Z,9.67
2022-10-07T07:05:04.707Z,9.55
2022-10-07T07:07:32.757Z,10.02
2022-10-07T07:10:00.249Z,10.09
2022-10-07T07:12:28.277Z,10.17
2022-10-07T07:14:56.120Z,10.24
2022-10-07T07:17:23.260Z,10.31
2022-10-07T07:19:50.446Z,10.41
2022-10-07T07:22:18.806Z,10.30
2022-10-07T07:24:46.532Z,10.55
2022-10-07T07:27:14.910Z,10.50
2022-10-07T07:29:43.657Z,10.82
2022-10-07T07:32:11.849Z,10.99
2022-10-07T07:34:42.722Z,11.20
2022-10-07T07:37:13.827Z,11.40
2022-10-07T07:39:45.664Z,11.60
2022-10-07T07:42:15.907Z,11.77
2022-10-07T07:44:43.800Z,11.72
2022-10-07T07:47:16.796Z,12.16
2022-10-07T07:49:45.131Z,12.07
2022-10-07T07:52:17.682Z,12.53
2022-10-07T07:54:48.390Z,12.74
2022-10-07T07:57:15.536Z,12.96
2022-10-07T07:59:42.733Z,12.88
2022-10-07T08:02:15.195Z,13.34
2022-10-07T08:04:46.611Z,13.53
2022-10-07T08:07:14.333Z,13.61
2022-10-07T08:09:44.919Z,13.91
2022-10-07T08:12:14.865Z,13.87
2022-10-07T08:14:43.576Z,14.27
2022-10-07T08:17:12.387Z,14.42
2022-10-07T08:19:40.106Z,14.48
2022-10-07T08:22:09.292Z,14.49
2022-10-07T08:24:37.962Z,14.72
2022-10-07T08:27:05.158Z,15.10
2022-10-07T08:29:32.411Z,15.31
2022-10-07T08:31:59.646Z,14.94
2022-10-07T08:34:27.416Z,15.64
2022-10-07T08:36:56.596Z,15.76
2022-10-07T08:39:25.051Z,15.91
2022-10-07T08:41:55.237Z,16.09
2022-10-07T08:44:36.255Z,16.20
2022-10-07T08:47:28.662Z,16.15
2022-10-07T08:50:19.234Z,16.40
2022-10-07T08:52:51.927Z,16.43
2022-10-07T08:55:39.813Z,16.47
2022-10-07T08:58:50.067Z,16.52
2022-10-07T09:01:23.217Z,16.62
2022-10-07T09:04:18.606Z,16.72
2022-10-07T09:06:52.815Z,16.76
2022-10-07T09:09:27.782Z,16.66
2022-10-07T09:11:57.816Z,16.80
2022-10-07T09:14:30.766Z,16.88
2022-10-07T09:17:04.220Z,16.87
2022-10-07T09:19:39.997Z,16.96
2022-10-07T09:22:17.625Z,16.95
2022-10-07T09:24:46.882Z,16.96
2022-10-07T09:27:16.458Z,16.50
2022-10-07T09:29:43.886Z,16.78
2022-10-07T09:32:17.658Z,16.92
2022-10-07T09:34:46.130Z,16.90
2022-10-07T09:37:17.913Z,16.99
2022-10-07T09:39:46.457Z,16.99
2022-10-07T09:42:35.656Z,16.84
2022-10-07T09:45:20.668Z,16.83
2022-10-07T09:47:53.071Z,16.86
2022-10-07T09:50:32.868Z,16.65
2022-10-07T09:53:01.746Z,16.73
2022-10-07T09:55:39.469Z,16.56
2022-10-07T09:58:18.417Z,16.76
2022-10-07T10:00:49.139Z,16.77
2022-10-07T10:03:17.799Z,16.74
2022-10-07T10:05:58.140Z,16.80
2022-10-07T10:08:26.990Z,16.83
2022-10-07T10:10:55.430Z,16.84
2022-10-07T10:13:28.717Z,16.82
2022-10-07T10:15:56.488Z,16.98
2022-10-07T10:18:28.747Z,17.03
2022-10-07T10:20:56.645Z,17.05
2022-10-07T10:23:39.530Z,16.92
2022-10-07T10:26:33.327Z,17.10
2022-10-07T10:29:16.637Z,17.10
2022-10-07T10:32:02.132Z,17.13
2022-10-07T10:35:08.134Z,17.15
2022-10-07T10:37:41.099Z,17.16
2022-10-07T10:40:33.047Z,17.25
2022-10-07T10:43:31.377Z,17.30
2022-10-07T10:46:32.062Z,17.32
2022-10-07T10:49:11.115Z,17.32
2022-10-07T10:52:08.683Z,17.46
2022-10-07T10:55:02.686Z,17.49
2022-10-07T10:57:49.193Z,17.51
2022-10-07T11:00:21.649Z,17.50
2022-10-07T11:03:24.866Z,17.56
2022-10-07T11:05:55.157Z,17.55
2022-10-07T11:08:27.769Z,17.46
2022-10-07T11:11:09.652Z,17.59
2022-10-07T11:13:43.736Z,17.66
2022-10-07T11:16:19.803Z,17.72
2022-10-07T11:18:58.314Z,17.66
2022-10-07T11:22:00.126Z,17.73
2022-10-07T11:24:39.788Z,17.67
2022-10-07T11:27:25.311Z,17.67
2022-10-07T11:30:09.030Z,17.66
2022-10-07T11:32:59.657Z,17.67
2022-10-07T11:35:36.559Z,17.68
2022-10-07T11:38:13.156Z,17.76
2022-10-07T11:40:57.383Z,17.68
2022-10-07T11:43:33.699Z,17.85
2022-10-07T11:46:11.189Z,17.90
2022-10-07T11:48:46.189Z,17.89
2022-10-07T11:51:28.128Z,17.76
2022-10-07T11:53:58.034Z,17.96
2022-10-07T11:56:27.161Z,17.86
2022-10-07T11:59:02.253Z,17.90
2022-10-07T12:01:41.515Z,17.70
2022-10-07T12:04:26.067Z,17.72
2022-10-07T12:07:31.379Z,17.76
2022-10-07T12:10:02.012Z,17.77
2022-10-07T12:12:47.939Z,17.75
2022-10-07T12:15:24.031Z,17.73
2022-10-07T12:18:06.337Z,17.69
2022-10-07T12:20:35.555Z,17.68
2022-10-07T12:23:17.981Z,17.65
2022-10-07T12:25:47.951Z,17.43
2022-10-07T12:28:23.953Z,17.62
2022-10-07T12:30:54.618Z,17.62
2022-10-07T12:33:34.939Z,17.67
2022-10-07T12:36:29.862Z,17.60
2022-10-07T12:39:00.099Z,17.56
2022-10-07T12:41:40.044Z,17.54
2022-10-07T12:44:24.042Z,17.56
2022-10-07T12:46:51.428Z,17.53
2022-10-07T12:49:49.219Z,17.47
2022-10-07T12:53:01.230Z,17.35
2022-10-07T12:55:39.831Z,17.39
2022-10-07T12:58:48.517Z,17.37
2022-10-07T13:01:24.978Z,17.41
2022-10-07T13:04:29.857Z,17.41
2022-10-07T13:07:21.740Z,17.42
2022-10-07T13:10:16.117Z,17.41
2022-10-07T13:13:08.959Z,17.33
2022-10-07T13:15:53.468Z,17.25
2022-10-07T13:18:39.918Z,17.37
2022-10-07T13:21:27.783Z,17.36
2022-10-07T13:23:56.250Z,17.38
2022-10-07T13:26:26.050Z,17.36
2022-10-07T13:28:57.008Z,17.36
2022-10-07T13:31:29.537Z,17.32
2022-10-07T13:33:58.788Z,17.00
2022-10-07T13:36:28.305Z,17.26
2022-10-07T13:39:20.655Z,17.22
2022-10-07T13:41:51.041Z,17.14
2022-10-07T13:44:19.881Z,17.15
2022-10-07T13:47:07.511Z,17.13
2022-10-07T13:49:47.356Z,17.13
2022-10-07T13:52:44.765Z,17.11
2022-10-07T13:55:30.878Z,17.08
2022-10-07T13:58:02.211Z,17.09
2022-10-07T14:00:30.950Z,17.08
2022-10-07T14:02:58.359Z,17.06
2022-10-07T14:05:31.211Z,16.95
2022-10-07T14:08:15.304Z,16.98
2022-10-07T14:10:57.988Z,16.97
2022-10-07T14:13:27.929Z,16.96
2022-10-07T14:15:57.415Z,16.94
2022-10-07T14:18:29.834Z,16.89
2022-10-07T14:21:08.837Z,16.90
2022-10-07T14:23:38.163Z,16.89
2022-10-07T14:26:07.921Z,16.86
2022-10-07T14:28:36.694Z,16.61
2022-10-07T14:31:25.474Z,16.81
2022-10-07T14:34:34.889Z,16.78
2022-10-07T14:37:20.118Z,16.71
2022-10-07T14:39:49.585Z,16.71
2022-10-07T14:42:19.439Z,16.69
2022-10-07T14:44:47.160Z,16.63
2022-10-07T14:47:24.959Z,16.64
2022-10-07T14:49:53.599Z,16.64
2022-10-07T14:52:29.977Z,16.60
2022-10-07T14:55:11.829Z,16.55
2022-10-07T14:57:39.021Z,16.57
2022-10-07T15:00:15.015Z,16.53
2022-10-07T15:02:42.656Z,16.27
2022-10-07T15:05:10.542Z,16.29
2022-10-07T15:07:37.970Z,16.43
2022-10-07T15:10:07.192Z,16.28
2022-10-07T15:12:34.382Z,16.36
2022-10-07T15:15:01.554Z,16.31
2022-10-07T15:17:30.011Z,16.30
2022-10-07T15:19:57.236Z,15.68
2022-10-07T15:22:24.470Z,16.24
2022-10-07T15:24:51.537Z,16.17
2022-10-07T15:27:19.574Z,15.83
2022-10-07T15:29:46.738Z,15.68
2022-10-07T15:32:13.842Z,16.06
2022-10-07T15:34:40.956Z,16.00
2022-10-07T15:37:09.386Z,15.94
2022-10-07T15:39:39.735Z,15.85
2022-10-07T15:42:10.034Z,15.81
2022-10-07T15:44:37.151Z,15.75
2022-10-07T15:47:04.306Z,15.65
2022-10-07T15:49:32.409Z,15.63
2022-10-07T15:51:59.865Z,15.46
2022-10-07T15:54:26.908Z,15.41
2022-10-07T15:56:54.343Z,15.43
2022-10-07T15:59:21.793Z,15.33
2022-10-07T16:01:51.878Z,15.15
2022-10-07T16:04:20.697Z,15.30
2022-10-07T16:06:51.703Z,15.24
2022-10-07T16:09:20.240Z,15.16
2022-10-07T16:11:47.942Z,15.11
2022-10-07T16:14:15.774Z,15.03
2022-10-07T16:16:43.304Z,14.96
2022-10-07T16:19:11.874Z,14.90
2022-10-07T16:21:42.179Z,14.26
2022-10-07T16:24:16.754Z,14.75
2022-10-07T16:26:45.297Z,14.69
2022-10-07T16:29:39.100Z,14.61
2022-10-07T16:32:10.899Z,14.55
2022-10-07T16:34:43.694Z,14.51
2022-10-07T16:37:11.861Z,14.46
2022-10-07T16:39:39.092Z,14.40
2022-10-07T16:42:06.418Z,14.35
2022-10-07T16:44:33.661Z,14.30
2022-10-07T16:47:01.422Z,14.17
2022-10-07T16:49:30.607Z,14.07
2022-10-07T16:51:58.790Z,14.19
2022-10-07T16:54:26.354Z,14.13
2022-10-07T16:56:53.963Z,14.12
2022-10-07T16:59:26.352Z,14.14
2022-10-07T17:01:55.967Z,14.03
2022-10-07T17:04:24.969Z,14.03
2022-10-07T17:06:52.958Z,14.07
2022-10-07T17:09:20.249Z,14.00
2022-10-07T17:11:47.659Z,13.82
2022-10-07T17:14:20.147Z,13.51
2022-10-07T17:16:50.141Z,13.79
2022-10-07T17:19:20.197Z,13.91
2022-10-07T17:21:48.854Z,13.88
2022-10-07T17:24:17.299Z,13.86
2022-10-07T17:26:45.575Z,13.68
2022-10-07T17:29:15.761Z,13.82
2022-10-07T17:31:43.669Z,13.77
2022-10-07T17:34:12.133Z,13.80
2022-10-07T17:36:40.068Z,13.62
2022-10-07T17:39:07.833Z,13.55
2022-10-07T17:41:37.211Z,13.75
2022-10-07T17:44:10.800Z,13.75
2022-10-07T17:46:39.573Z,13.74
2022-10-07T17:49:08.851Z,13.72
2022-10-07T17:51:37.514Z,13.64
2022-10-07T17:54:06.409Z,13.66
2022-10-07T17:56:34.950Z,13.38
2022-10-07T17:59:03.081Z,13.60
2022-10-07T18:01:34.271Z,13.47
2022-10-07T18:04:04.680Z,13.55
2022-10-07T18:06:34.167Z,13.53
2022-10-07T18:09:05.784Z,13.46
2022-10-07T18:11:51.968Z,13.52
2022-10-07T18:14:37.717Z,13.49
2022-10-07T18:17:06.454Z,13.47
2022-10-07T18:19:33.757Z,13.42
2022-10-07T18:22:02.828Z,13.44
2022-10-07T18:24:29.931Z,13.44
2022-10-07T18:27:00.768Z,13.43
2022-10-07T18:29:33.250Z,13.28
2022-10-07T18:32:00.943Z,13.47
2022-10-07T18:34:28.362Z,13.45
2022-10-07T18:36:57.239Z,13.07
2022-10-07T18:39:27.579Z,13.34
2022-10-07T18:41:54.713Z,13.39
2022-10-07T18:44:22.531Z,13.46
2022-10-07T18:46:49.726Z,13.48
2022-10-07T18:49:17.080Z,13.25
2022-10-07T18:51:46.206Z,13.46
2022-10-07T18:54:13.700Z,13.30
2022-10-07T18:56:41.710Z,13.40
2022-10-07T18:59:10.521Z,13.41
2022-10-07T19:01:38.109Z,13.37
2022-10-07T19:04:07.027Z,13.34
2022-10-07T19:06:36.931Z,13.33
2022-10-07T19:09:16.573Z,13.28
2022-10-07T19:11:44.314Z,13.24
2022-10-07T19:14:11.990Z,13.24
2022-10-07T19:16:41.825Z,12.75
2022-10-07T19:19:17.233Z,13.15
2022-10-07T19:21:46.627Z,13.14
2022-10-07T19:24:15.637Z,13.16
2022-10-07T19:26:45.954Z,13.14
2022-10-07T19:29:14.136Z,13.09
2022-10-07T19:31:49.084Z,13.08
2022-10-07T19:34:21.058Z,13.02
2022-10-07T19:36:49.079Z,12.96
2022-10-07T19:39:19.267Z,12.95
2022-10-07T19:41:47.073Z,12.90
2022-10-07T19:44:15.650Z,12.93
2022-10-07T19:46:43.119Z,12.92
2022-10-07T19:49:11.046Z,12.83
2022-10-07T19:51:39.248Z,12.89
2022-10-07T19:54:10.312Z,12.83
2022-10-07T19:56:38.598Z,12.90
2022-10-07T19:59:10.929Z,12.85
2022-10-07T20:01:42.126Z,12.43
2022-10-07T20:04:15.016Z,12.85
2022-10-07T20:06:43.591Z,12.66
2022-10-07T20:09:20.445Z,12.69
2022-10-07T20:11:48.158Z,12.75
2022-10-07T20:14:16.354Z,12.50
2022-10-07T20:16:44.005Z,12.77
2022-10-07T20:19:16.809Z,12.76
2022-10-07T20:21:44.144Z,12.61
2022-10-07T20:24:16.424Z,12.68
2022-10-07T20:26:44.811Z,12.63
2022-10-07T20:29:14.028Z,12.48
2022-10-07T20:31:43.005Z,12.46
2022-10-07T20:34:16.288Z,12.54
2022-10-07T20:36:44.178Z,12.45
2022-10-07T20:39:38.052Z,12.47
2022-10-07T20:42:21.703Z,12.44
2022-10-07T20:44:50.147Z,12.37
2022-10-07T20:47:18.511Z,12.45
2022-10-07T20:49:45.991Z,12.42
2022-10-07T20:52:17.590Z,12.32
2022-10-07T20:54:45.656Z,12.27
2022-10-07T20:57:16.066Z,12.35
2022-10-07T20:59:43.145Z,12.31
2022-10-07T21:02:12.096Z,12.26
2022-10-07T21:04:39.433Z,12.24
2022-10-07T21:07:06.813Z,12.21
2022-10-07T21:09:36.560Z,12.18
2022-10-07T21:12:09.943Z,12.16
2022-10-07T21:14:37.920Z,12.14
2022-10-07T21:17:06.130Z,11.90
2022-10-07T21:19:36.274Z,11.92
2022-10-07T21:22:04.737Z,11.99
2022-10-07T21:24:34.710Z,11.90
2022-10-07T21:27:06.527Z,11.90
2022-10-07T21:29:37.452Z,11.87
2022-10-07T21:32:06.693Z,11.73
2022-10-07T21:34:33.732Z,11.65
2022-10-07T21:37:00.847Z,11.85
2022-10-07T21:39:28.062Z,11.56
2022-10-07T21:41:55.562Z,11.65
2022-10-07T21:44:22.663Z,11.43
2022-10-07T21:46:49.951Z,11.71
2022-10-07T21:49:17.692Z,11.28
2022-10-07T21:51:45.083Z,11.04
2022-10-07T21:54:14.420Z,11.21
2022-10-07T21:56:43.792Z,11.26
2022-10-07T21:59:11.733Z,11.39
2022-10-07T22:01:39.025Z,11.63
2022-10-07T22:04:07.523Z,11.58
2022-10-07T22:06:55.636Z,11.11
2022-10-07T22:09:23.319Z,11.70
2022-10-07T22:11:51.357Z,11.48
2022-10-07T22:14:19.004Z,11.47
2022-10-07T22:16:48.631Z,11.66
2022-10-07T22:19:17.790Z,11.83
2022-10-07T22:21:46.030Z,11.60
2022-10-07T22:24:14.257Z,11.95
2022-10-07T22:26:47.323Z,12.01
2022-10-07T22:29:17.175Z,11.95
2022-10-07T22:31:45.297Z,12.01
2022-10-07T22:34:31.691Z,12.01
2022-10-07T22:36:58.913Z,12.00
2022-10-07T22:39:27.013Z,11.77
2022-10-07T22:41:54.203Z,12.08
2022-10-07T22:44:21.199Z,12.11
2022-10-07T22:46:48.223Z,12.13
2022-10-07T22:49:15.510Z,12.01
2022-10-07T22:51:43.365Z,12.18
2022-10-07T22:54:14.474Z,12.16
2022-10-07T22:56:41.864Z,12.23
2022-10-07T22:59:09.194Z,12.20
2022-10-07T23:01:36.836Z,12.13
2022-10-07T23:04:04.828Z,12.16
2022-10-07T23:06:33.941Z,12.05
2022-10-07T23:09:02.632Z,12.06
2022-10-07T23:11:30.502Z,12.13
2022-10-07T23:13:57.799Z,12.12
2022-10-07T23:16:29.630Z,11.98
2022-10-07T23:18:58.824Z,11.86
2022-10-07T23:21:29.297Z,12.13
2022-10-07T23:24:06.803Z,12.12
2022-10-07T23:26:35.313Z,12.09
2022-10-07T23:29:03.182Z,12.08
2022-10-07T23:31:32.663Z,12.08
2022-10-07T23:34:01.682Z,12.08
2022-10-07T23:36:29.425Z,12.08
2022-10-07T23:38:58.584Z,12.02
2022-10-07T23:41:27.814Z,12.08
2022-10-07T23:43:57.805Z,12.08
2022-10-07T23:46:26.748Z,12.06
2022-10-07T23:48:54.776Z,12.07
2022-10-07T23:51:24.828Z,12.08
2022-10-07T23:53:52.170Z,12.07
2022-10-07T23:56:19.227Z,11.85
2022-10-07T23:58:46.265Z,12.08
